Terminal Aerodrome Forecast
Issued by NWS Grand Forks, ND

Home | Current Version | Previous Version | Graphics & Text | Print | Product List | Glossary On
Versions: 1 2 3 4 5 6 7 8 9 10 11 12 13
000
FTUS43 KFGF 161134
TAFGFK
TAF
KGFK 161134Z 1612/1712 19007KT P6SM FEW250
     FM161400 19011KT P6SM FEW250
     FM161700 21015G23KT P6SM SKC
     FM162300 26011KT P6SM SKC
     FM170100 27006KT P6SM SKC
     FM171100 20005KT P6SM SKC=

USA.gov is the U.S. government's official web portal to all federal, state and local government web resources and services.